Time;durP1;ratioP1;P1;durP2;ratioP2;P2;SDS_P1;SDS_P2;PMS_P1;PMS_P2;Temp;Humidity;BMP_temperature;BMP_pressure;BME280_temperature;BME280_humidity;BME280_pressure;Samples;Min_cycle;Max_cycle;Signal;HPM_P1;HPM_P2
2023/05/07 00:01:47;;;;;;;19.00;13.85;;;8.40;93.60;;;;;;4990933;28;20081;-73
2023/05/07 00:04:13;;;;;;;17.00;13.32;;;8.40;93.70;;;;;;4992145;28;20038;-72
2023/05/07 00:06:39;;;;;;;18.17;12.90;;;8.50;93.70;;;;;;4994770;28;20026;-72
2023/05/07 00:09:05;;;;;;;16.88;12.93;;;8.50;93.60;;;;;;4994425;28;20022;-73
2023/05/07 00:11:30;;;;;;;15.02;11.65;;;8.40;93.70;;;;;;4994002;28;20025;-72
2023/05/07 00:13:56;;;;;;;14.07;10.98;;;8.40;93.50;;;;;;4993508;28;20036;-72
2023/05/07 00:16:21;;;;;;;15.20;10.73;;;8.40;93.20;;;;;;4993161;28;20487;-73
2023/05/07 00:18:47;;;;;;;15.77;10.32;;;8.50;93.10;;;;;;4998765;28;20119;-72
2023/05/07 00:21:12;;;;;;;17.75;11.00;;;8.50;93.10;;;;;;4999966;28;20034;-72
2023/05/07 00:23:38;;;;;;;14.88;10.27;;;8.50;92.90;;;;;;4996254;28;20515;-72
2023/05/07 00:26:04;;;;;;;13.05;9.27;;;8.50;92.90;;;;;;4994219;28;20038;-73
2023/05/07 00:28:29;;;;;;;15.25;10.02;;;8.40;92.80;;;;;;4995515;28;20030;-72
2023/05/07 00:30:55;;;;;;;13.43;9.25;;;8.40;92.80;;;;;;4992338;28;20054;-72
2023/05/07 00:33:22;;;;;;;13.30;8.32;;;8.40;92.70;;;;;;4991304;28;20367;-73
2023/05/07 00:35:47;;;;;;;11.25;7.70;;;8.40;92.80;;;;;;4987472;28;20041;-73
2023/05/07 00:38:13;;;;;;;12.57;7.85;;;8.40;92.30;;;;;;4994725;28;20031;-72
2023/05/07 00:40:38;;;;;;;10.05;6.25;;;8.40;92.10;;;;;;4994090;28;20105;-72
2023/05/07 00:43:04;;;;;;;12.07;7.60;;;8.40;92.00;;;;;;4992045;28;20022;-73
2023/05/07 00:45:29;;;;;;;10.38;7.15;;;8.40;92.10;;;;;;4990845;28;20115;-72
2023/05/07 00:48:00;;;;;;;11.50;7.50;;;8.40;92.10;;;;;;4992947;28;20175;-72
2023/05/07 00:50:27;;;;;;;9.95;7.68;;;8.50;92.10;;;;;;4989004;28;20025;-73
2023/05/07 00:52:53;;;;;;;10.85;7.43;;;8.50;92.00;;;;;;4996379;28;20026;-72
2023/05/07 00:55:19;;;;;;;11.55;7.95;;;8.50;92.00;;;;;;4993116;28;20108;-72
2023/05/07 00:57:45;;;;;;;11.27;7.78;;;8.50;92.00;;;;;;4995271;28;20027;-72
2023/05/07 01:00:12;;;;;;;10.77;8.02;;;8.50;92.00;;;;;;4991271;28;20033;-72
2023/05/07 01:02:40;;;;;;;11.95;7.43;;;8.60;92.00;;;;;;4989881;28;20026;-71
2023/05/07 01:05:09;;;;;;;12.18;8.45;;;8.50;91.90;;;;;;4993221;28;20108;-72
2023/05/07 01:07:35;;;;;;;9.77;7.38;;;8.50;91.90;;;;;;4989670;28;20041;-72
2023/05/07 01:10:01;;;;;;;10.15;7.55;;;8.60;92.00;;;;;;4991379;28;20359;-72
2023/05/07 01:12:29;;;;;;;12.63;8.30;;;8.60;92.10;;;;;;4981930;28;20102;-72
2023/05/07 01:14:55;;;;;;;10.50;7.30;;;8.50;92.10;;;;;;4990841;28;20859;-72
2023/05/07 01:17:20;;;;;;;14.27;8.85;;;8.50;92.10;;;;;;4990806;28;20037;-73
2023/05/07 01:19:47;;;;;;;13.40;8.38;;;8.50;92.30;;;;;;4991556;28;20034;-73
2023/05/07 01:22:15;;;;;;;13.18;9.13;;;8.50;92.30;;;;;;4993368;28;20022;-73
2023/05/07 01:24:42;;;;;;;13.68;9.35;;;8.50;92.40;;;;;;4990852;28;20037;-72
2023/05/07 01:27:07;;;;;;;13.35;8.27;;;8.50;92.30;;;;;;4990110;28;20038;-72
2023/05/07 01:29:32;;;;;;;11.15;8.60;;;8.50;92.30;;;;;;4995262;28;20053;-72
2023/05/07 01:32:00;;;;;;;11.80;9.23;;;8.50;92.40;;;;;;4991779;28;20132;-72
2023/05/07 01:34:30;;;;;;;12.85;8.65;;;8.50;92.50;;;;;;4990703;28;20782;-73
2023/05/07 01:36:57;;;;;;;11.80;8.80;;;8.60;92.50;;;;;;4981707;28;20033;-73
2023/05/07 01:39:28;;;;;;;11.95;9.10;;;8.60;92.50;;;;;;4987402;28;20033;-72
2023/05/07 01:41:56;;;;;;;16.20;8.65;;;8.50;92.40;;;;;;4989742;28;20054;-72
2023/05/07 01:44:22;;;;;;;11.50;9.00;;;8.50;92.40;;;;;;4991270;28;20029;-72
2023/05/07 01:46:48;;;;;;;11.80;8.55;;;8.50;92.50;;;;;;4990214;28;20038;-73
2023/05/07 01:49:15;;;;;;;13.07;9.15;;;8.50;92.60;;;;;;4990346;28;20148;-73
2023/05/07 01:51:41;;;;;;;13.35;8.70;;;8.50;92.60;;;;;;4989779;28;20066;-72
2023/05/07 01:54:08;;;;;;;11.52;8.75;;;8.50;92.60;;;;;;4995467;28;20064;-72
2023/05/07 01:56:33;;;;;;;12.05;8.68;;;8.50;92.60;;;;;;4989022;28;20068;-72
2023/05/07 01:58:59;;;;;;;11.40;8.23;;;8.50;92.20;;;;;;4990317;28;20391;-72
2023/05/07 02:01:24;;;;;;;12.18;8.55;;;8.50;92.00;;;;;;4989267;28;20086;-72
2023/05/07 02:03:50;;;;;;;11.25;8.48;;;8.50;92.00;;;;;;4989364;28;20030;-72
2023/05/07 02:06:16;;;;;;;10.77;8.60;;;8.50;91.80;;;;;;4969472;28;20033;-73
2023/05/07 02:08:41;;;;;;;10.95;8.55;;;8.40;91.60;;;;;;4991286;28;20061;-72
2023/05/07 02:11:07;;;;;;;9.68;7.03;;;8.40;91.30;;;;;;5000704;28;20026;-72
2023/05/07 02:13:34;;;;;;;14.13;8.45;;;8.50;91.70;;;;;;4993023;28;20034;-72
2023/05/07 02:15:59;;;;;;;11.52;8.43;;;8.50;91.40;;;;;;4992100;28;20034;-73
2023/05/07 02:18:25;;;;;;;11.73;8.18;;;8.40;91.20;;;;;;4990201;28;20490;-72
2023/05/07 02:20:50;;;;;;;12.20;8.13;;;8.40;91.10;;;;;;4985651;28;20118;-72
2023/05/07 02:23:16;;;;;;;11.20;8.65;;;8.40;91.30;;;;;;4990118;28;20033;-72
2023/05/07 02:25:41;;;;;;;10.50;7.22;;;8.40;91.30;;;;;;4988853;28;20161;-73
2023/05/07 02:28:07;;;;;;;11.38;8.30;;;8.40;91.00;;;;;;4988897;28;20030;-72
2023/05/07 02:30:32;;;;;;;11.95;9.18;;;8.40;91.20;;;;;;4989226;28;20058;-73
2023/05/07 02:32:58;;;;;;;10.50;8.18;;;8.40;90.90;;;;;;4987858;28;20019;-72
2023/05/07 02:35:25;;;;;;;12.95;9.63;;;8.40;91.20;;;;;;4988202;28;20521;-73
2023/05/07 02:37:50;;;;;;;10.80;8.55;;;8.40;91.10;;;;;;4985857;28;20080;-72
2023/05/07 02:40:15;;;;;;;12.65;8.93;;;8.40;91.00;;;;;;4989826;28;20030;-72
2023/05/07 02:42:41;;;;;;;13.35;9.52;;;8.40;90.90;;;;;;4989610;28;20034;-72
2023/05/07 02:45:07;;;;;;;15.00;9.13;;;8.40;90.80;;;;;;4995068;28;20030;-73
2023/05/07 02:47:32;;;;;;;12.50;9.23;;;8.40;90.90;;;;;;4989295;28;20061;-72
2023/05/07 02:49:58;;;;;;;11.30;8.80;;;8.50;90.90;;;;;;4988571;28;20054;-72
2023/05/07 02:52:23;;;;;;;11.63;8.73;;;8.40;90.70;;;;;;4989363;28;20038;-72
2023/05/07 02:54:49;;;;;;;13.32;9.38;;;8.40;90.40;;;;;;4990565;28;20138;-72
2023/05/07 02:57:14;;;;;;;11.82;8.63;;;8.40;90.40;;;;;;4993860;28;20043;-73
2023/05/07 02:59:41;;;;;;;12.93;9.35;;;8.50;90.50;;;;;;4985899;28;20089;-72
2023/05/07 03:02:07;;;;;;;10.35;8.40;;;8.40;90.50;;;;;;4987521;28;20030;-72
2023/05/07 03:04:32;;;;;;;11.65;9.23;;;8.40;90.50;;;;;;4988603;28;20037;-73
2023/05/07 03:06:57;;;;;;;11.30;8.38;;;8.50;90.70;;;;;;4989173;28;20080;-73
2023/05/07 03:09:23;;;;;;;11.30;8.00;;;8.50;90.70;;;;;;4989726;28;20383;-73
2023/05/07 03:11:48;;;;;;;11.60;8.27;;;8.50;90.80;;;;;;4989504;28;20038;-72
2023/05/07 03:14:14;;;;;;;12.02;8.05;;;8.50;90.80;;;;;;5002279;28;20363;-73
2023/05/07 03:16:40;;;;;;;10.43;7.80;;;8.50;90.60;;;;;;4991648;28;20475;-73
2023/05/07 03:19:05;;;;;;;10.93;8.38;;;8.40;90.50;;;;;;4988548;28;20034;-72
2023/05/07 03:21:33;;;;;;;10.88;8.10;;;8.40;90.60;;;;;;4989872;28;20057;-73
2023/05/07 03:23:59;;;;;;;10.15;8.13;;;8.40;90.20;;;;;;4990864;28;22198;-72
2023/05/07 03:26:25;;;;;;;12.02;7.97;;;8.40;90.30;;;;;;4990964;28;20157;-72
2023/05/07 03:28:50;;;;;;;8.88;6.85;;;8.40;90.30;;;;;;4989271;28;20030;-72
2023/05/07 03:31:16;;;;;;;10.35;7.97;;;8.30;90.20;;;;;;4959409;28;20113;-72
2023/05/07 03:33:52;;;;;;;11.30;7.93;;;8.40;90.20;;;;;;4985676;28;20040;-73
2023/05/07 03:36:18;;;;;;;11.73;8.27;;;8.40;90.20;;;;;;4970912;28;20046;-72
2023/05/07 03:38:43;;;;;;;12.13;8.48;;;8.40;90.20;;;;;;4987756;28;20022;-72
2023/05/07 03:41:09;;;;;;;11.23;7.63;;;8.40;90.20;;;;;;4986886;28;20019;-72
2023/05/07 03:43:34;;;;;;;10.68;7.45;;;8.40;90.10;;;;;;4988169;28;20026;-72
2023/05/07 03:46:00;;;;;;;11.50;7.88;;;8.40;90.20;;;;;;4983124;28;20037;-72
2023/05/07 03:48:25;;;;;;;10.55;8.07;;;8.40;90.00;;;;;;4968282;28;20518;-71
2023/05/07 03:50:51;;;;;;;10.45;8.30;;;8.40;90.10;;;;;;4986637;28;20018;-72
2023/05/07 03:53:16;;;;;;;14.02;8.60;;;8.40;90.00;;;;;;4988675;28;20057;-72
2023/05/07 03:55:42;;;;;;;11.30;8.27;;;8.40;90.00;;;;;;4987213;28;20042;-72
2023/05/07 03:58:07;;;;;;;11.13;8.32;;;8.40;90.20;;;;;;4990077;28;20114;-72
2023/05/07 04:00:37;;;;;;;14.20;9.32;;;8.40;90.00;;;;;;4981670;28;20052;-72
2023/05/07 04:03:04;;;;;;;12.30;9.83;;;8.40;90.10;;;;;;4986105;28;20025;-72
2023/05/07 04:05:30;;;;;;;12.88;10.20;;;8.40;90.20;;;;;;4987215;28;20049;-72
2023/05/07 04:07:55;;;;;;;12.50;9.77;;;8.30;90.10;;;;;;4988807;28;20459;-72
2023/05/07 04:10:21;;;;;;;13.40;9.88;;;8.40;90.30;;;;;;4986092;28;20072;-73
2023/05/07 04:12:47;;;;;;;13.02;10.55;;;8.50;90.20;;;;;;4986093;28;20031;-72
2023/05/07 04:15:12;;;;;;;14.73;10.50;;;8.40;90.20;;;;;;4988214;28;20051;-73
2023/05/07 04:17:38;;;;;;;13.13;10.05;;;8.40;90.10;;;;;;4988866;28;20093;-72
2023/05/07 04:20:04;;;;;;;12.43;9.45;;;8.40;90.40;;;;;;4986231;28;20062;-72
2023/05/07 04:22:30;;;;;;;15.35;10.43;;;8.50;90.20;;;;;;4988311;28;20034;-72
2023/05/07 04:24:56;;;;;;;12.70;10.02;;;8.50;90.50;;;;;;4985770;28;20455;-72
2023/05/07 04:27:21;;;;;;;13.40;10.48;;;8.50;90.40;;;;;;4986121;28;20030;-73
2023/05/07 04:29:47;;;;;;;15.15;10.38;;;8.40;90.60;;;;;;4986082;28;20378;-73
2023/05/07 04:32:13;;;;;;;12.82;9.30;;;8.50;90.40;;;;;;4979511;28;20061;-72
2023/05/07 04:34:38;;;;;;;14.70;10.10;;;8.50;90.60;;;;;;4984873;28;20041;-73
2023/05/07 04:37:04;;;;;;;13.60;9.65;;;8.50;90.30;;;;;;4987318;28;20030;-73
2023/05/07 04:39:29;;;;;;;15.10;10.13;;;8.60;90.30;;;;;;4983339;28;20023;-72
2023/05/07 04:41:55;;;;;;;14.73;10.40;;;8.60;90.20;;;;;;4992033;28;20054;-72
2023/05/07 04:44:20;;;;;;;12.85;9.45;;;8.60;90.20;;;;;;4991549;28;20379;-73
2023/05/07 04:46:46;;;;;;;13.07;9.77;;;8.60;90.30;;;;;;4995131;28;20172;-72
2023/05/07 04:49:11;;;;;;;15.52;10.45;;;8.60;90.30;;;;;;4990599;28;20026;-72
2023/05/07 04:51:38;;;;;;;13.98;10.38;;;8.60;90.30;;;;;;4994089;28;20172;-72
2023/05/07 04:54:03;;;;;;;13.77;10.82;;;8.60;90.20;;;;;;5000442;28;20109;-72
2023/05/07 04:56:32;;;;;;;13.93;10.00;;;8.50;90.00;;;;;;4992271;28;20038;-73
2023/05/07 04:58:57;;;;;;;13.25;10.00;;;8.60;90.10;;;;;;4985933;28;20057;-72
2023/05/07 05:01:23;;;;;;;13.13;9.73;;;8.70;90.30;;;;;;4990895;28;20030;-72
2023/05/07 05:03:48;;;;;;;13.27;9.75;;;8.60;90.10;;;;;;4991399;28;20030;-73
2023/05/07 05:06:14;;;;;;;17.33;10.25;;;8.70;90.10;;;;;;4972518;28;20041;-72
2023/05/07 05:08:39;;;;;;;11.57;8.93;;;8.70;89.90;;;;;;5005121;28;20409;-72
2023/05/07 05:11:05;;;;;;;15.30;11.13;;;8.70;89.90;;;;;;4998442;28;20030;-72
2023/05/07 05:13:30;;;;;;;11.77;9.10;;;8.60;89.70;;;;;;5006527;28;20041;-72
2023/05/07 05:15:56;;;;;;;14.23;10.60;;;8.70;89.90;;;;;;4978184;28;20030;-72
2023/05/07 05:18:21;;;;;;;13.30;8.20;;;8.70;90.10;;;;;;4993971;28;20057;-72
2023/05/07 05:20:47;;;;;;;13.73;9.77;;;8.80;89.60;;;;;;4991081;28;20352;-72
2023/05/07 05:23:12;;;;;;;12.80;9.00;;;8.80;89.60;;;;;;4992420;28;20100;-73
2023/05/07 05:25:39;;;;;;;13.65;9.80;;;8.90;89.50;;;;;;4992953;28;20038;-72
2023/05/07 05:28:04;;;;;;;12.48;9.35;;;8.80;89.00;;;;;;4996034;28;20044;-72
2023/05/07 05:30:30;;;;;;;12.05;8.68;;;8.80;89.10;;;;;;4990058;28;20125;-76
2023/05/07 05:32:55;;;;;;;11.85;9.27;;;8.90;89.30;;;;;;4990968;28;20038;-77
2023/05/07 05:35:20;;;;;;;13.00;8.88;;;9.00;89.20;;;;;;4988041;28;20081;-77
2023/05/07 05:37:46;;;;;;;13.75;9.65;;;9.00;89.30;;;;;;4987243;28;20038;-77
2023/05/07 05:40:12;;;;;;;11.43;9.15;;;9.00;89.00;;;;;;4991936;28;20041;-77
2023/05/07 05:42:37;;;;;;;12.43;9.60;;;9.00;89.00;;;;;;4990707;28;20030;-77
2023/05/07 05:45:03;;;;;;;12.55;9.38;;;9.00;88.80;;;;;;4985890;28;20035;-77
2023/05/07 05:47:29;;;;;;;12.10;8.80;;;9.10;89.30;;;;;;4990345;28;20027;-77
2023/05/07 05:49:55;;;;;;;11.95;8.88;;;9.00;88.90;;;;;;4977434;28;20122;-75
2023/05/07 05:52:23;;;;;;;12.70;8.93;;;9.10;88.70;;;;;;4990148;28;20518;-77
2023/05/07 05:54:49;;;;;;;12.70;8.85;;;9.10;88.60;;;;;;4989772;28;20064;-77
2023/05/07 05:57:14;;;;;;;12.55;8.80;;;9.20;88.70;;;;;;4986776;28;20113;-78
2023/05/07 05:59:40;;;;;;;13.00;9.60;;;9.10;88.50;;;;;;4968194;28;20026;-77
2023/05/07 06:02:06;;;;;;;13.10;9.50;;;9.10;88.70;;;;;;4981363;28;20113;-78
2023/05/07 06:04:32;;;;;;;14.05;9.75;;;9.10;88.70;;;;;;4987948;28;20025;-77
2023/05/07 06:06:57;;;;;;;12.73;9.07;;;9.10;88.90;;;;;;4986853;28;20443;-78
2023/05/07 06:09:23;;;;;;;14.02;9.23;;;9.20;88.60;;;;;;4990180;28;20104;-78
2023/05/07 06:11:48;;;;;;;13.98;9.30;;;9.20;88.60;;;;;;4992046;28;20030;-78
2023/05/07 06:14:14;;;;;;;14.05;9.88;;;9.30;88.50;;;;;;4991478;28;20037;-76
2023/05/07 06:16:39;;;;;;;12.75;9.75;;;9.10;88.40;;;;;;4987453;28;20117;-75
2023/05/07 06:19:05;;;;;;;13.68;9.73;;;9.10;88.80;;;;;;4991685;28;20110;-75
2023/05/07 06:21:31;;;;;;;12.27;9.10;;;9.10;88.80;;;;;;4989573;28;20053;-75
2023/05/07 06:23:56;;;;;;;14.57;9.93;;;9.10;88.60;;;;;;4988707;28;20030;-75
2023/05/07 06:26:22;;;;;;;12.40;9.40;;;9.10;88.80;;;;;;4989037;28;20042;-75
2023/05/07 06:28:47;;;;;;;13.57;9.77;;;9.20;88.60;;;;;;4992858;28;20707;-75
2023/05/07 06:31:16;;;;;;;12.77;9.43;;;9.10;89.00;;;;;;4991584;28;20084;-75
2023/05/07 06:33:43;;;;;;;15.80;9.88;;;9.20;88.70;;;;;;4989273;28;20407;-75
2023/05/07 06:36:08;;;;;;;14.60;9.77;;;9.40;88.60;;;;;;4986754;28;20046;-75
2023/05/07 06:38:33;;;;;;;13.88;9.90;;;9.40;88.30;;;;;;4988484;28;20056;-75
2023/05/07 06:40:59;;;;;;;13.52;9.25;;;9.40;88.10;;;;;;4992145;28;20105;-75
2023/05/07 06:43:24;;;;;;;19.92;9.25;;;9.40;87.90;;;;;;4986954;28;20029;-75
2023/05/07 06:45:50;;;;;;;12.50;8.63;;;9.50;88.20;;;;;;4988589;28;20120;-75
2023/05/07 06:48:15;;;;;;;12.73;8.05;;;9.40;87.70;;;;;;4993161;28;20045;-77
2023/05/07 06:50:42;;;;;;;13.88;8.48;;;9.40;87.90;;;;;;4986932;28;20121;-75
2023/05/07 06:53:07;;;;;;;15.65;9.80;;;9.40;87.70;;;;;;4987182;28;20062;-75
2023/05/07 06:55:32;;;;;;;12.20;8.82;;;9.50;88.10;;;;;;4985834;28;20084;-75
2023/05/07 06:58:00;;;;;;;14.65;8.95;;;9.50;87.90;;;;;;4990869;28;20215;-76
2023/05/07 07:00:29;;;;;;;12.48;8.43;;;9.60;87.60;;;;;;4968855;28;20490;-76
2023/05/07 07:02:55;;;;;;;13.73;8.38;;;9.70;87.80;;;;;;4987606;28;20054;-77
2023/05/07 07:05:21;;;;;;;10.65;8.50;;;9.60;87.80;;;;;;4987350;28;20068;-77
2023/05/07 07:07:52;;;;;;;11.65;8.45;;;9.60;87.70;;;;;;4987759;28;20379;-79
2023/05/07 07:10:19;;;;;;;13.50;8.38;;;9.70;87.90;;;;;;4971083;28;20026;-79
2023/05/07 07:12:45;;;;;;;10.70;7.47;;;9.70;87.50;;;;;;4991554;28;20391;-78
2023/05/07 07:15:10;;;;;;;12.20;7.50;;;9.80;87.60;;;;;;4996055;28;20025;-78
2023/05/07 07:17:36;;;;;;;10.90;7.90;;;9.80;87.00;;;;;;4989709;28;20052;-78
2023/05/07 07:20:02;;;;;;;12.93;8.02;;;9.90;86.90;;;;;;4989078;28;20371;-78
2023/05/07 07:22:28;;;;;;;14.43;9.07;;;10.00;86.70;;;;;;4989584;28;20109;-78
2023/05/07 07:24:54;;;;;;;11.90;8.13;;;10.00;86.40;;;;;;4989132;28;20133;-78
2023/05/07 07:27:19;;;;;;;11.82;7.70;;;10.10;86.30;;;;;;4987189;28;20511;-79
2023/05/07 07:29:45;;;;;;;10.18;7.28;;;10.30;86.40;;;;;;4989644;28;20045;-78
2023/05/07 07:32:10;;;;;;;12.02;7.72;;;10.30;85.30;;;;;;4986811;28;20026;-79
2023/05/07 07:34:36;;;;;;;11.07;7.45;;;10.20;85.30;;;;;;4987291;28;20043;-78
2023/05/07 07:37:05;;;;;;;12.60;7.68;;;10.20;86.10;;;;;;4987055;28;20046;-78
2023/05/07 07:39:31;;;;;;;12.38;7.45;;;10.20;85.60;;;;;;4982033;28;20034;-78
2023/05/07 07:41:56;;;;;;;10.60;6.90;;;10.10;85.60;;;;;;4984333;28;20037;-78
2023/05/07 07:44:22;;;;;;;11.75;7.07;;;10.30;85.20;;;;;;4987527;28;20027;-77
2023/05/07 07:46:47;;;;;;;12.77;7.32;;;10.40;85.30;;;;;;4986265;28;20124;-78
2023/05/07 07:49:13;;;;;;;10.63;7.03;;;10.20;85.40;;;;;;4982615;28;20462;-78
2023/05/07 07:51:38;;;;;;;9.55;7.13;;;10.40;84.80;;;;;;4978625;28;20038;-77
2023/05/07 07:54:04;;;;;;;13.85;6.43;;;10.40;84.80;;;;;;4977942;28;20046;-77
2023/05/07 07:56:29;;;;;;;11.10;6.85;;;10.30;84.80;;;;;;4984671;28;20371;-76
2023/05/07 07:58:55;;;;;;;9.80;5.82;;;10.30;84.50;;;;;;4985281;28;20026;-76
2023/05/07 08:01:20;;;;;;;9.63;6.20;;;10.30;84.60;;;;;;4984873;28;20101;-76
2023/05/07 08:03:46;;;;;;;9.95;6.50;;;10.40;84.90;;;;;;4989216;28;20038;-76
2023/05/07 08:06:11;;;;;;;11.73;6.13;;;10.50;84.50;;;;;;4987636;28;20114;-77
2023/05/07 08:08:37;;;;;;;10.85;6.82;;;10.60;84.90;;;;;;4984725;28;20459;-76
2023/05/07 08:11:02;;;;;;;9.13;6.10;;;10.70;84.20;;;;;;4984961;28;20026;-76
2023/05/07 08:13:28;;;;;;;10.35;6.50;;;10.60;84.00;;;;;;4988523;28;20037;-76
2023/05/07 08:15:53;;;;;;;8.52;5.75;;;10.60;84.00;;;;;;4990300;28;20038;-75
2023/05/07 08:18:19;;;;;;;9.55;6.25;;;10.60;83.30;;;;;;4989879;28;20027;-76
2023/05/07 08:20:44;;;;;;;9.68;6.10;;;10.90;83.40;;;;;;4966123;28;20053;-76
2023/05/07 08:23:10;;;;;;;9.90;5.95;;;11.00;83.00;;;;;;4991753;28;20042;-75
2023/05/07 08:25:35;;;;;;;8.55;5.68;;;10.90;82.50;;;;;;4988672;28;20053;-77
2023/05/07 08:28:03;;;;;;;8.68;6.03;;;10.90;82.60;;;;;;4990279;28;20546;-77
2023/05/07 08:30:28;;;;;;;9.60;6.50;;;11.10;82.40;;;;;;4991638;28;20057;-77
2023/05/07 08:32:54;;;;;;;8.05;5.47;;;11.10;82.70;;;;;;4984139;28;20035;-75
2023/05/07 08:35:19;;;;;;;11.35;6.18;;;11.60;81.90;;;;;;4988664;28;20041;-76
2023/05/07 08:37:45;;;;;;;9.73;5.75;;;11.60;81.40;;;;;;4987941;28;20169;-75
2023/05/07 08:40:10;;;;;;;8.23;4.85;;;11.50;80.70;;;;;;4990403;28;20161;-75
2023/05/07 08:42:37;;;;;;;9.05;5.80;;;11.80;80.20;;;;;;4987611;28;20437;-76
2023/05/07 08:45:08;;;;;;;7.78;5.60;;;12.00;80.90;;;;;;4993281;28;20022;-75
2023/05/07 08:47:47;;;;;;;9.65;6.03;;;12.20;79.60;;;;;;4988214;28;20103;-75
2023/05/07 08:50:13;;;;;;;8.23;5.03;;;12.30;79.20;;;;;;4986108;28;20062;-76
2023/05/07 08:52:41;;;;;;;7.95;5.50;;;12.20;78.40;;;;;;4989434;28;20026;-76
2023/05/07 08:55:08;;;;;;;8.75;5.10;;;12.60;78.30;;;;;;4993661;28;20030;-77
2023/05/07 08:57:34;;;;;;;8.55;5.63;;;12.80;77.40;;;;;;4991144;28;20046;-79
2023/05/07 09:00:00;;;;;;;9.00;5.10;;;12.50;77.30;;;;;;4993809;28;20019;-80
2023/05/07 09:02:25;;;;;;;7.28;4.95;;;12.70;77.80;;;;;;4993746;28;20038;-78
2023/05/07 09:04:52;;;;;;;7.90;5.30;;;12.60;78.20;;;;;;4981245;28;20022;-77
2023/05/07 09:07:19;;;;;;;7.13;4.90;;;12.50;78.60;;;;;;4989087;28;20477;-80
2023/05/07 09:09:45;;;;;;;7.53;5.55;;;12.60;77.70;;;;;;4991538;28;20026;-81
2023/05/07 09:12:10;;;;;;;8.43;5.60;;;12.50;77.60;;;;;;4994247;28;20026;-77
2023/05/07 09:14:36;;;;;;;7.38;5.68;;;12.20;78.00;;;;;;4988639;28;20030;-70
2023/05/07 09:17:01;;;;;;;10.80;5.15;;;12.30;77.30;;;;;;4987103;28;20034;-74
2023/05/07 09:19:27;;;;;;;8.70;5.53;;;12.30;78.60;;;;;;4985732;28;20454;-75
2023/05/07 09:22:00;;;;;;;9.27;5.95;;;12.20;78.20;;;;;;4987897;28;20467;-76
2023/05/07 09:24:28;;;;;;;7.57;5.55;;;12.00;79.40;;;;;;4983927;28;20034;-75
2023/05/07 09:26:55;;;;;;;9.05;5.60;;;12.30;79.30;;;;;;4983434;28;20065;-75
2023/05/07 09:29:20;;;;;;;9.23;5.45;;;12.20;79.30;;;;;;5002784;28;20487;-74
2023/05/07 09:31:46;;;;;;;7.78;5.57;;;12.10;79.10;;;;;;5010884;28;20044;-75
2023/05/07 09:34:11;;;;;;;7.88;5.68;;;12.30;79.20;;;;;;4994030;28;20123;-74
2023/05/07 09:36:37;;;;;;;11.70;5.75;;;12.00;79.40;;;;;;4992253;28;20046;-75
2023/05/07 09:39:02;;;;;;;8.70;5.90;;;12.00;78.90;;;;;;4987091;28;20101;-75
2023/05/07 09:41:30;;;;;;;8.50;5.30;;;12.10;78.90;;;;;;4989550;28;20038;-75
2023/05/07 09:43:56;;;;;;;7.95;5.65;;;12.20;79.50;;;;;;4990571;28;20481;-75
2023/05/07 09:46:27;;;;;;;8.25;5.22;;;12.30;78.60;;;;;;4998895;28;20041;-74
2023/05/07 09:48:54;;;;;;;;;;;12.40;78.00;;;;;;4987102;28;20030;-75
2023/05/07 09:51:28;;;;;;;7.65;4.85;;;12.50;78.80;;;;;;4981381;28;20262;-74
2023/05/07 09:53:53;;;;;;;8.95;4.63;;;12.30;77.60;;;;;;4974046;28;20030;-74
2023/05/07 09:56:20;;;;;;;9.10;5.20;;;12.30;77.20;;;;;;4987979;28;20046;-74
2023/05/07 09:58:46;;;;;;;7.40;4.85;;;12.50;77.70;;;;;;4991754;28;20038;-74
2023/05/07 10:01:12;;;;;;;8.23;5.05;;;13.00;77.20;;;;;;4984617;28;20042;-73
2023/05/07 10:03:41;;;;;;;6.45;4.22;;;12.70;77.00;;;;;;4985704;28;20074;-75
2023/05/07 10:06:11;;;;;;;7.18;4.50;;;12.70;75.80;;;;;;4989835;28;20027;-74
2023/05/07 10:08:37;;;;;;;6.70;3.97;;;13.00;76.20;;;;;;4992282;28;20026;-74
2023/05/07 10:11:05;;;;;;;6.78;4.00;;;13.00;75.40;;;;;;4987740;28;20049;-74
2023/05/07 10:13:34;;;;;;;6.93;4.30;;;13.30;75.10;;;;;;4984267;28;20038;-74
2023/05/07 10:16:00;;;;;;;7.07;3.83;;;13.60;75.40;;;;;;4986502;28;20068;-73
2023/05/07 10:18:29;;;;;;;7.25;4.18;;;13.30;73.10;;;;;;4990625;28;20034;-76
2023/05/07 10:21:19;;;;;;;7.18;3.80;;;13.20;73.90;;;;;;4985816;28;20029;-74
2023/05/07 10:23:56;;;;;;;5.47;3.80;;;13.60;74.30;;;;;;4987794;28;20383;-74
2023/05/07 10:26:23;;;;;;;6.72;4.30;;;13.90;74.70;;;;;;4988108;28;20371;-74
2023/05/07 10:28:54;;;;;;;5.55;3.60;;;14.00;72.90;;;;;;4991348;28;20451;-75
2023/05/07 10:31:38;;;;;;;6.40;4.03;;;14.10;74.00;;;;;;4983303;28;20018;-75
2023/05/07 10:34:10;;;;;;;5.90;3.63;;;13.80;72.10;;;;;;4996023;28;20029;-75
2023/05/07 10:36:36;;;;;;;5.53;3.65;;;14.00;73.10;;;;;;4985387;28;20038;-75
2023/05/07 10:39:02;;;;;;;5.75;3.67;;;14.70;72.40;;;;;;4988477;28;20030;-75
2023/05/07 10:41:28;;;;;;;6.47;3.72;;;15.10;71.30;;;;;;4988826;28;20507;-75
2023/05/07 10:43:53;;;;;;;6.43;4.20;;;15.00;70.00;;;;;;4986692;28;20352;-75
2023/05/07 10:46:20;;;;;;;6.00;4.30;;;14.90;70.00;;;;;;4986846;28;20037;-75
2023/05/07 10:49:00;;;;;;;6.90;4.03;;;14.90;70.50;;;;;;4988769;28;20026;-75
2023/05/07 10:51:27;;;;;;;6.88;4.13;;;15.30;69.10;;;;;;4981991;28;20687;-75
2023/05/07 10:54:11;;;;;;;9.90;4.22;;;15.10;68.70;;;;;;4984667;28;20038;-75
2023/05/07 10:56:44;;;;;;;8.18;4.30;;;15.20;69.40;;;;;;4987055;28;20042;-75
2023/05/07 10:59:26;;;;;;;7.15;4.20;;;15.30;68.60;;;;;;4986876;28;20025;-75
2023/05/07 11:02:02;;;;;;;7.53;3.75;;;15.40;69.80;;;;;;4984165;28;20027;-74
2023/05/07 11:04:27;;;;;;;5.40;3.90;;;15.80;68.40;;;;;;4982838;28;20045;-74
2023/05/07 11:07:08;;;;;;;5.88;4.20;;;16.10;67.40;;;;;;4988397;28;20034;-74
2023/05/07 11:09:51;;;;;;;4.85;3.42;;;15.70;65.70;;;;;;4983309;28;20093;-74
2023/05/07 11:12:36;;;;;;;5.25;4.18;;;15.80;66.60;;;;;;4982597;28;20109;-75
2023/05/07 11:15:12;;;;;;;7.47;4.07;;;15.50;68.10;;;;;;4989056;28;20030;-74
2023/05/07 11:17:57;;;;;;;6.43;4.10;;;15.80;65.60;;;;;;4986077;28;20053;-75
2023/05/07 11:20:58;;;;;;;4.63;3.90;;;15.60;66.80;;;;;;4985903;28;20440;-73
2023/05/07 11:23:33;;;;;;;6.32;4.40;;;16.50;66.00;;;;;;4904399;29;20088;-74
2023/05/07 11:26:07;;;;;;;7.00;4.25;;;16.80;65.30;;;;;;4976461;28;20038;-79
2023/05/07 11:28:43;;;;;;;5.40;3.80;;;17.30;63.30;;;;;;4992029;28;20026;-80
2023/05/07 11:31:09;;;;;;;4.68;3.55;;;17.20;63.70;;;;;;4987898;28;20062;-80
2023/05/07 11:33:35;;;;;;;7.03;3.40;;;17.00;63.80;;;;;;4989320;28;20038;-75
2023/05/07 11:36:04;;;;;;;7.00;3.67;;;17.90;61.30;;;;;;4987081;28;20149;-76
2023/05/07 11:38:37;;;;;;;9.80;3.88;;;17.80;61.20;;;;;;4985608;28;20029;-78
2023/05/07 11:41:05;;;;;;;6.68;4.07;;;17.90;61.80;;;;;;4987217;28;20463;-76
2023/05/07 11:43:31;;;;;;;6.15;3.80;;;17.00;62.90;;;;;;4984654;28;20109;-73
2023/05/07 11:46:11;;;;;;;9.73;3.95;;;16.50;64.40;;;;;;4986687;28;20077;-73
2023/05/07 11:48:37;;;;;;;6.50;4.00;;;16.40;62.80;;;;;;4984254;28;20034;-78
2023/05/07 11:51:04;;;;;;;5.93;4.03;;;16.90;65.10;;;;;;4987775;28;20374;-73
2023/05/07 11:53:38;;;;;;;5.68;3.75;;;16.60;63.60;;;;;;4989312;28;20129;-76
2023/05/07 11:56:14;;;;;;;6.57;4.00;;;16.80;63.50;;;;;;4985391;28;20029;-73
2023/05/07 11:58:41;;;;;;;7.55;4.30;;;16.90;63.10;;;;;;4974854;28;20045;-73
2023/05/07 12:01:11;;;;;;;6.97;4.05;;;16.50;64.60;;;;;;4970903;28;20019;-72
2023/05/07 12:03:42;;;;;;;6.15;3.78;;;16.10;64.10;;;;;;4988174;28;20097;-72
2023/05/07 12:06:08;;;;;;;5.30;3.85;;;15.60;64.40;;;;;;4984129;28;20252;-72
2023/05/07 12:08:37;;;;;;;5.97;4.13;;;15.30;66.20;;;;;;4968229;28;20038;-73
2023/05/07 12:11:03;;;;;;;5.43;3.70;;;15.40;66.50;;;;;;4991008;28;20045;-73
2023/05/07 12:13:28;;;;;;;6.53;3.92;;;15.90;64.80;;;;;;4983188;28;20451;-73
2023/05/07 12:15:55;;;;;;;7.05;4.00;;;15.50;66.30;;;;;;4988135;28;20026;-73
2023/05/07 12:18:22;;;;;;;5.38;3.70;;;16.10;66.20;;;;;;4972134;28;20056;-73
2023/05/07 12:20:49;;;;;;;5.40;3.72;;;16.10;65.20;;;;;;4985745;28;20034;-73
2023/05/07 12:23:15;;;;;;;6.32;3.67;;;16.20;64.70;;;;;;4990272;28;20058;-73
2023/05/07 12:25:48;;;;;;;5.78;3.20;;;15.90;65.60;;;;;;4988879;28;20057;-73
2023/05/07 12:28:17;;;;;;;7.45;3.70;;;16.30;63.60;;;;;;4984775;28;20049;-73
2023/05/07 12:30:44;;;;;;;5.90;3.42;;;16.20;63.70;;;;;;4989787;28;20050;-73
2023/05/07 12:33:11;;;;;;;6.60;3.40;;;16.50;63.10;;;;;;4988292;28;20459;-73
2023/05/07 12:35:41;;;;;;;5.32;3.35;;;16.60;64.70;;;;;;4983572;28;20038;-74
2023/05/07 12:38:12;;;;;;;5.15;3.40;;;17.20;60.70;;;;;;4979565;28;20498;-71
2023/05/07 12:40:43;;;;;;;6.55;3.40;;;17.60;61.60;;;;;;4988462;28;20038;-74
2023/05/07 12:43:24;;;;;;;6.47;3.58;;;17.70;62.00;;;;;;4985074;28;20021;-73
2023/05/07 12:45:53;;;;;;;4.85;3.30;;;17.10;61.00;;;;;;4983825;28;20039;-73